Time;durP1;ratioP1;P1;durP2;ratioP2;P2;SDS_P1;SDS_P2;PMS_P1;PMS_P2;Temp;Humidity;BMP_temperature;BMP_pressure;BME280_temperature;BME280_humidity;BME280_pressure;Samples;Min_cycle;Max_cycle;Signal;HPM_P1;HPM_P2
2023/03/22 00:01:39;;;;;;;7.13;2.08;;;;;;;;;;6272003;22;20549;-84
2023/03/22 00:04:06;;;;;;;8.93;2.13;;;;;;;;;;6270928;22;20020;-85
2023/03/22 00:06:32;;;;;;;9.77;2.42;;;;;;;;;;6274458;22;20024;-84
2023/03/22 00:08:59;;;;;;;14.13;2.72;;;;;;;;;;6268697;22;20033;-85
2023/03/22 00:11:26;;;;;;;11.23;2.78;;;;;;;;;;6271521;22;20020;-85
2023/03/22 00:13:52;;;;;;;8.43;2.10;;;;;;;;;;6270175;22;20032;-85
2023/03/22 00:16:19;;;;;;;15.30;2.95;;;;;;;;;;6270113;22;20024;-86
2023/03/22 00:18:45;;;;;;;11.88;2.72;;;;;;;;;;6269687;22;20107;-85
2023/03/22 00:21:13;;;;;;;8.60;2.33;;;;;;;;;;6268087;22;20013;-85
2023/03/22 00:23:39;;;;;;;13.82;2.70;;;;;;;;;;6270309;22;20114;-85
2023/03/22 00:26:06;;;;;;;8.80;2.63;;;;;;;;;;6271844;22;20106;-85
2023/03/22 00:28:33;;;;;;;12.77;3.00;;;;;;;;;;6272849;22;20046;-84
2023/03/22 00:31:01;;;;;;;12.50;2.42;;;;;;;;;;6245216;22;20024;-84
2023/03/22 00:33:28;;;;;;;8.88;2.30;;;;;;;;;;6271835;22;20028;-85
2023/03/22 00:35:59;;;;;;;15.55;3.28;;;;;;;;;;6271503;22;20499;-84
2023/03/22 00:38:25;;;;;;;;;;;;;;;;;;6244052;22;20035;-84
2023/03/22 00:41:06;;;;;;;;;;;;;;;;;;6273317;22;46836;-85
2023/03/22 00:43:33;;;;;;;12.32;2.45;;;;;;;;;;6269703;22;46232;-85
2023/03/22 00:45:59;;;;;;;9.32;2.58;;;;;;;;;;6271798;22;20086;-84
2023/03/22 00:48:26;;;;;;;15.35;2.63;;;;;;;;;;6271807;22;20554;-84
2023/03/22 00:50:53;;;;;;;12.30;3.42;;;;;;;;;;6270753;22;20131;-84
2023/03/22 00:53:19;;;;;;;12.55;2.60;;;;;;;;;;6270306;22;20063;-85
2023/03/22 00:55:45;;;;;;;12.05;2.70;;;;;;;;;;6271573;22;20724;-84
2023/03/22 00:58:12;;;;;;;12.15;2.30;;;;;;;;;;6271427;22;20055;-84
2023/03/22 01:00:38;;;;;;;7.50;2.22;;;;;;;;;;6271998;22;20071;-84
2023/03/22 01:03:05;;;;;;;9.38;2.22;;;;;;;;;;6270214;22;20590;-85
2023/03/22 01:05:32;;;;;;;8.63;2.30;;;;;;;;;;6271582;22;20031;-84
2023/03/22 01:08:01;;;;;;;7.45;2.22;;;;;;;;;;6270348;22;20440;-84
2023/03/22 01:10:27;;;;;;;13.43;2.70;;;;;;;;;;6270438;22;20074;-85
2023/03/22 01:12:55;;;;;;;8.70;2.33;;;;;;;;;;6269967;22;20040;-85
2023/03/22 01:15:22;;;;;;;11.52;2.20;;;;;;;;;;6242986;22;20947;-85
2023/03/22 01:17:48;;;;;;;10.18;2.50;;;;;;;;;;6244887;22;20031;-85
2023/03/22 01:20:15;;;;;;;10.18;3.13;;;;;;;;;;6245028;22;20587;-85
2023/03/22 01:22:41;;;;;;;7.78;2.20;;;;;;;;;;6271915;22;20020;-84
2023/03/22 01:25:08;;;;;;;8.63;2.30;;;;;;;;;;6243374;22;20082;-85
2023/03/22 01:27:34;;;;;;;9.75;2.05;;;;;;;;;;6271791;22;20102;-84
2023/03/22 01:30:01;;;;;;;9.00;2.58;;;;;;;;;;6269935;22;20144;-84
2023/03/22 01:32:27;;;;;;;9.57;2.30;;;;;;;;;;6270271;22;20024;-84
2023/03/22 01:34:54;;;;;;;6.75;2.35;;;;;;;;;;6242051;22;20050;-85
2023/03/22 01:37:26;;;;;;;9.98;2.60;;;;;;;;;;6270181;22;20020;-85
2023/03/22 01:39:55;;;;;;;7.93;2.58;;;;;;;;;;6243597;22;20496;-84
2023/03/22 01:42:22;;;;;;;10.95;2.80;;;;;;;;;;6273222;22;20912;-85
2023/03/22 01:45:07;;;;;;;8.57;2.58;;;;;;;;;;6268749;22;20024;-84
2023/03/22 01:47:33;;;;;;;8.35;2.50;;;;;;;;;;6269406;22;20031;-84
2023/03/22 01:50:00;;;;;;;11.70;3.00;;;;;;;;;;6269818;22;20031;-84
2023/03/22 01:52:27;;;;;;;9.57;2.95;;;;;;;;;;6269190;22;20075;-87
2023/03/22 01:54:53;;;;;;;8.77;2.65;;;;;;;;;;6266735;22;20099;-85
2023/03/22 01:57:20;;;;;;;8.20;2.42;;;;;;;;;;6249835;22;20090;-85
2023/03/22 01:59:48;;;;;;;10.50;2.45;;;;;;;;;;6284341;22;20693;-85
2023/03/22 02:02:17;;;;;;;10.93;2.83;;;;;;;;;;6255641;22;20078;-85
2023/03/22 02:04:49;;;;;;;12.38;3.08;;;;;;;;;;6252308;22;20167;-85
2023/03/22 02:07:24;;;;;;;9.75;2.50;;;;;;;;;;6283620;22;20058;-85
2023/03/22 02:09:51;;;;;;;10.27;2.90;;;;;;;;;;6255244;22;20027;-85
2023/03/22 02:12:36;;;;;;;9.73;2.75;;;;;;;;;;6284326;22;20012;-85
2023/03/22 02:15:03;;;;;;;10.25;2.45;;;;;;;;;;6281629;22;20066;-85
2023/03/22 02:17:50;;;;;;;9.07;3.03;;;;;;;;;;6283296;22;20016;-86
2023/03/22 02:20:37;;;;;;;10.45;2.50;;;;;;;;;;6255950;22;20012;-85
2023/03/22 02:23:10;;;;;;;7.50;2.58;;;;;;;;;;6254651;22;20016;-85
2023/03/22 02:25:36;;;;;;;8.98;2.97;;;;;;;;;;6258899;22;20031;-85
2023/03/22 02:28:03;;;;;;;9.38;3.00;;;;;;;;;;6284911;22;19996;-85
2023/03/22 02:30:35;;;;;;;10.95;3.35;;;;;;;;;;6282983;22;20020;-85
2023/03/22 02:33:23;;;;;;;13.52;3.42;;;;;;;;;;6280232;22;20024;-85
2023/03/22 02:35:53;;;;;;;11.35;3.47;;;;;;;;;;6280584;22;20028;-85
2023/03/22 02:38:19;;;;;;;12.43;4.28;;;;;;;;;;6280849;22;20031;-85
2023/03/22 02:41:01;;;;;;;12.05;4.43;;;;;;;;;;6277786;22;20023;-85
2023/03/22 02:43:33;;;;;;;12.93;5.15;;;;;;;;;;6276860;22;20024;-85
2023/03/22 02:46:10;;;;;;;14.98;5.35;;;;;;;;;;6279463;22;20039;-85
2023/03/22 02:48:43;;;;;;;14.32;5.40;;;;;;;;;;6278962;22;20050;-85
2023/03/22 02:51:15;;;;;;;14.15;6.05;;;;;;;;;;6280524;22;20032;-85
2023/03/22 02:53:48;;;;;;;17.80;5.95;;;;;;;;;;6276696;22;21286;-85
2023/03/22 02:56:17;;;;;;;15.20;6.30;;;;;;;;;;6278936;22;20025;-85
2023/03/22 02:58:46;;;;;;;18.42;7.15;;;;;;;;;;6277369;22;20016;-85
2023/03/22 03:01:19;;;;;;;14.15;6.35;;;;;;;;;;6278608;22;20024;-85
2023/03/22 03:03:47;;;;;;;18.77;6.28;;;;;;;;;;6277522;22;20520;-84
2023/03/22 03:06:16;;;;;;;15.82;6.57;;;;;;;;;;6275193;22;20020;-85
2023/03/22 03:08:43;;;;;;;19.92;7.07;;;;;;;;;;6277853;22;20968;-85
2023/03/22 03:11:09;;;;;;;17.63;7.10;;;;;;;;;;6275927;22;20108;-85
2023/03/22 03:13:36;;;;;;;21.90;8.07;;;;;;;;;;6274116;22;20463;-85
2023/03/22 03:16:05;;;;;;;18.33;7.13;;;;;;;;;;6275286;22;20020;-85
2023/03/22 03:18:31;;;;;;;21.02;7.90;;;;;;;;;;6274187;22;20022;-85
2023/03/22 03:21:01;;;;;;;22.08;9.25;;;;;;;;;;6277276;22;20032;-85
2023/03/22 03:23:37;;;;;;;18.77;8.55;;;;;;;;;;6273274;22;20016;-85
2023/03/22 03:26:19;;;;;;;23.92;8.40;;;;;;;;;;6275681;22;20075;-85
2023/03/22 03:28:58;;;;;;;21.17;7.95;;;;;;;;;;6277309;22;20110;-85
2023/03/22 03:31:43;;;;;;;18.20;7.63;;;;;;;;;;6277412;22;20020;-84
2023/03/22 03:34:14;;;;;;;20.35;8.80;;;;;;;;;;6248988;22;20024;-85
2023/03/22 03:36:45;;;;;;;16.05;8.07;;;;;;;;;;6250048;22;20353;-85
2023/03/22 03:39:13;;;;;;;18.80;8.48;;;;;;;;;;6276901;22;20016;-85
2023/03/22 03:41:41;;;;;;;21.50;8.02;;;;;;;;;;6276931;22;20064;-85
2023/03/22 03:44:08;;;;;;;17.80;8.88;;;;;;;;;;6276359;22;20012;-85
2023/03/22 03:46:34;;;;;;;22.88;8.57;;;;;;;;;;6276990;22;20099;-85
2023/03/22 03:49:01;;;;;;;18.70;8.98;;;;;;;;;;6248232;22;20042;-84
2023/03/22 03:51:27;;;;;;;22.92;8.65;;;;;;;;;;6249237;22;20031;-85
2023/03/22 03:53:54;;;;;;;20.70;8.77;;;;;;;;;;6248510;22;20027;-85
2023/03/22 03:56:20;;;;;;;20.95;8.70;;;;;;;;;;6275317;22;20035;-85
2023/03/22 03:58:47;;;;;;;18.08;8.75;;;;;;;;;;6277876;22;20075;-85
2023/03/22 04:01:14;;;;;;;21.20;8.70;;;;;;;;;;6278632;22;20024;-85
2023/03/22 04:03:41;;;;;;;26.45;8.55;;;;;;;;;;6247590;22;20063;-84
2023/03/22 04:06:07;;;;;;;16.63;8.38;;;;;;;;;;6276082;22;20035;-85
2023/03/22 04:08:34;;;;;;;16.80;8.02;;;;;;;;;;6275519;22;20078;-85
2023/03/22 04:11:00;;;;;;;19.63;8.35;;;;;;;;;;6275720;22;20051;-85
2023/03/22 04:13:28;;;;;;;17.38;8.23;;;;;;;;;;6274820;22;20507;-85
2023/03/22 04:15:56;;;;;;;17.95;7.90;;;;;;;;;;6275227;22;20036;-84
2023/03/22 04:18:23;;;;;;;16.25;8.40;;;;;;;;;;6247707;22;20618;-85
2023/03/22 04:20:52;;;;;;;22.90;8.05;;;;;;;;;;6277612;22;20448;-85
2023/03/22 04:23:21;;;;;;;19.80;8.35;;;;;;;;;;6247361;22;20086;-84
2023/03/22 04:25:49;;;;;;;19.42;8.07;;;;;;;;;;6275168;22;20032;-85
2023/03/22 04:28:18;;;;;;;18.65;7.38;;;;;;;;;;6248939;22;20024;-84
2023/03/22 04:30:49;;;;;;;17.60;7.28;;;;;;;;;;6274874;22;20051;-84
2023/03/22 04:33:16;;;;;;;18.00;7.88;;;;;;;;;;6246431;22;20106;-85
2023/03/22 04:35:45;;;;;;;20.67;8.05;;;;;;;;;;6273734;22;20047;-84
2023/03/22 04:38:11;;;;;;;18.42;7.50;;;;;;;;;;6248229;22;20024;-84
2023/03/22 04:40:38;;;;;;;18.38;7.25;;;;;;;;;;6275889;22;20035;-85
2023/03/22 04:43:04;;;;;;;17.55;7.03;;;;;;;;;;6247424;22;20563;-85
2023/03/22 04:45:31;;;;;;;15.02;7.70;;;;;;;;;;6274871;22;20044;-85
2023/03/22 04:47:58;;;;;;;17.33;7.05;;;;;;;;;;6276208;22;20086;-84
2023/03/22 04:50:27;;;;;;;17.58;7.00;;;;;;;;;;6273930;22;20016;-84
2023/03/22 04:52:53;;;;;;;15.00;7.80;;;;;;;;;;6246421;22;20031;-84
2023/03/22 04:55:19;;;;;;;17.17;7.28;;;;;;;;;;6276590;22;20425;-84
2023/03/22 04:57:46;;;;;;;19.90;6.60;;;;;;;;;;6278432;22;20273;-85
2023/03/22 05:00:14;;;;;;;16.50;6.40;;;;;;;;;;6279098;22;20023;-85
2023/03/22 05:02:40;;;;;;;14.15;5.90;;;;;;;;;;6250239;22;20028;-84
2023/03/22 05:05:07;;;;;;;14.77;6.32;;;;;;;;;;6276293;22;20028;-85
2023/03/22 05:07:33;;;;;;;14.20;6.30;;;;;;;;;;6249232;22;20032;-85
2023/03/22 05:10:00;;;;;;;14.45;6.47;;;;;;;;;;6276717;22;20016;-86
2023/03/22 05:12:27;;;;;;;12.75;6.18;;;;;;;;;;6272922;22;20016;-86
2023/03/22 05:14:53;;;;;;;16.30;6.93;;;;;;;;;;6270115;22;20074;-86
2023/03/22 05:17:20;;;;;;;11.32;6.00;;;;;;;;;;6272908;22;20038;-86
2023/03/22 05:19:46;;;;;;;15.63;6.05;;;;;;;;;;6272334;22;20016;-86
2023/03/22 05:22:13;;;;;;;16.77;7.28;;;;;;;;;;6273194;22;20008;-85
2023/03/22 05:24:39;;;;;;;14.15;6.03;;;;;;;;;;6269587;22;20035;-85
2023/03/22 05:27:05;;;;;;;15.35;5.88;;;;;;;;;;6269535;22;20033;-85
2023/03/22 05:29:35;;;;;;;15.25;5.97;;;;;;;;;;6269874;22;20448;-85
2023/03/22 05:32:02;;;;;;;17.47;5.70;;;;;;;;;;6242685;22;20043;-86
2023/03/22 05:34:34;;;;;;;18.65;6.25;;;;;;;;;;6270728;22;20603;-85
2023/03/22 05:37:01;;;;;;;14.73;5.70;;;;;;;;;;6269789;22;20026;-86
2023/03/22 05:39:27;;;;;;;12.85;4.95;;;;;;;;;;6269411;22;20061;-86
2023/03/22 05:41:54;;;;;;;16.08;5.47;;;;;;;;;;6269395;22;20029;-86
2023/03/22 05:44:20;;;;;;;12.98;5.40;;;;;;;;;;6268941;22;20028;-86
2023/03/22 05:46:46;;;;;;;16.85;5.70;;;;;;;;;;6272658;22;20107;-86
2023/03/22 05:49:13;;;;;;;14.43;5.30;;;;;;;;;;6242899;22;20020;-86
2023/03/22 05:51:41;;;;;;;10.65;5.07;;;;;;;;;;6269080;22;20028;-85
2023/03/22 05:54:08;;;;;;;11.68;5.25;;;;;;;;;;6269242;22;20052;-86
2023/03/22 05:56:34;;;;;;;15.80;5.60;;;;;;;;;;6241177;22;20024;-86
2023/03/22 05:59:01;;;;;;;19.70;5.15;;;;;;;;;;6241978;22;20024;-86
2023/03/22 06:01:28;;;;;;;13.85;5.03;;;;;;;;;;6241753;22;20488;-86
2023/03/22 06:03:54;;;;;;;10.90;4.82;;;;;;;;;;6268111;22;20063;-86
2023/03/22 06:06:20;;;;;;;13.50;4.70;;;;;;;;;;6269197;22;20031;-86
2023/03/22 06:08:47;;;;;;;15.88;5.28;;;;;;;;;;6268084;22;20032;-86
2023/03/22 06:11:13;;;;;;;12.90;4.90;;;;;;;;;;6271380;22;20028;-86
2023/03/22 06:13:40;;;;;;;12.07;4.45;;;;;;;;;;6269234;22;20034;-87
2023/03/22 06:16:06;;;;;;;15.63;5.22;;;;;;;;;;6242277;22;20552;-87
2023/03/22 06:18:33;;;;;;;16.55;4.95;;;;;;;;;;6242783;22;20099;-86
2023/03/22 06:20:59;;;;;;;15.60;5.35;;;;;;;;;;6267165;22;20071;-86
2023/03/22 06:23:26;;;;;;;14.07;3.92;;;;;;;;;;6266548;22;20024;-86
2023/03/22 06:25:52;;;;;;;12.90;4.47;;;;;;;;;;6268255;22;20020;-86
2023/03/22 06:28:19;;;;;;;12.63;4.45;;;;;;;;;;6268743;22;20067;-85
2023/03/22 06:30:45;;;;;;;11.18;4.07;;;;;;;;;;6269648;22;20028;-85
2023/03/22 06:33:11;;;;;;;10.98;4.35;;;;;;;;;;6267073;22;20024;-86
2023/03/22 06:35:38;;;;;;;9.23;4.53;;;;;;;;;;6267839;22;20100;-86
2023/03/22 06:38:04;;;;;;;9.38;3.92;;;;;;;;;;6240469;22;20788;-86
2023/03/22 06:40:31;;;;;;;13.90;3.92;;;;;;;;;;6240879;22;20134;-85
2023/03/22 06:42:57;;;;;;;9.68;4.43;;;;;;;;;;6240497;22;20082;-85
2023/03/22 06:45:32;;;;;;;8.60;3.60;;;;;;;;;;6267014;22;20027;-86
2023/03/22 06:47:59;;;;;;;8.95;3.58;;;;;;;;;;6242597;22;20523;-86
2023/03/22 06:50:26;;;;;;;13.45;3.70;;;;;;;;;;6240891;22;20023;-86
2023/03/22 06:52:52;;;;;;;9.82;3.58;;;;;;;;;;6267532;22;20024;-85
2023/03/22 06:55:19;;;;;;;8.52;3.45;;;;;;;;;;6268221;22;20012;-85
2023/03/22 06:57:46;;;;;;;12.30;3.35;;;;;;;;;;6268322;22;20147;-85
2023/03/22 07:00:12;;;;;;;12.68;4.22;;;;;;;;;;6269503;22;20104;-86
2023/03/22 07:02:39;;;;;;;12.02;3.00;;;;;;;;;;6267346;22;20035;-85
2023/03/22 07:05:06;;;;;;;12.07;3.55;;;;;;;;;;6267664;22;20556;-86
2023/03/22 07:07:32;;;;;;;9.52;3.40;;;;;;;;;;6269347;22;20028;-86
2023/03/22 07:09:58;;;;;;;10.88;4.10;;;;;;;;;;6267766;22;20024;-86
2023/03/22 07:12:25;;;;;;;12.18;3.13;;;;;;;;;;6267580;22;20024;-85
2023/03/22 07:14:51;;;;;;;14.07;2.80;;;;;;;;;;6266727;22;20024;-86
2023/03/22 07:17:18;;;;;;;6.95;2.72;;;;;;;;;;6268136;22;20115;-86
2023/03/22 07:19:44;;;;;;;11.18;3.10;;;;;;;;;;6240348;22;20055;-85
2023/03/22 07:22:10;;;;;;;9.77;3.22;;;;;;;;;;6267779;22;20035;-86
2023/03/22 07:24:37;;;;;;;11.60;2.67;;;;;;;;;;6268086;22;20020;-86
2023/03/22 07:27:19;;;;;;;7.75;2.60;;;;;;;;;;6265526;22;20028;-85
2023/03/22 07:29:46;;;;;;;10.32;2.60;;;;;;;;;;6239809;22;20055;-85
2023/03/22 07:32:12;;;;;;;12.02;2.88;;;;;;;;;;6264745;22;20066;-85
2023/03/22 07:34:39;;;;;;;10.38;2.75;;;;;;;;;;6265294;22;20044;-86
2023/03/22 07:37:07;;;;;;;10.77;2.78;;;;;;;;;;6265615;22;20123;-86
2023/03/22 07:39:33;;;;;;;14.10;3.20;;;;;;;;;;6267371;22;20044;-86
2023/03/22 07:42:00;;;;;;;8.95;2.22;;;;;;;;;;6265415;22;20020;-86
2023/03/22 07:44:26;;;;;;;13.10;2.70;;;;;;;;;;6264480;22;20020;-86
2023/03/22 07:46:52;;;;;;;6.88;2.33;;;;;;;;;;6266264;22;20028;-86
2023/03/22 07:49:19;;;;;;;8.27;2.50;;;;;;;;;;6238866;22;20437;-86
2023/03/22 07:51:45;;;;;;;8.18;2.22;;;;;;;;;;6266888;22;20953;-86
2023/03/22 07:54:12;;;;;;;8.20;1.88;;;;;;;;;;6265858;22;20035;-86
2023/03/22 07:56:55;;;;;;;9.43;2.40;;;;;;;;;;6268254;22;20054;-86
2023/03/22 07:59:22;;;;;;;8.60;2.38;;;;;;;;;;6267744;22;20024;-86
2023/03/22 08:01:49;;;;;;;11.55;2.35;;;;;;;;;;6236899;22;20793;-86
2023/03/22 08:04:15;;;;;;;10.77;2.58;;;;;;;;;;6238527;22;20991;-86
2023/03/22 08:06:42;;;;;;;8.30;2.50;;;;;;;;;;6266400;22;20024;-85
2023/03/22 08:09:09;;;;;;;10.38;2.80;;;;;;;;;;6266868;22;20268;-86
2023/03/22 08:11:35;;;;;;;7.82;2.28;;;;;;;;;;6266916;22;20027;-86
2023/03/22 08:14:01;;;;;;;8.15;2.20;;;;;;;;;;6264241;22;20032;-86
2023/03/22 08:16:28;;;;;;;9.70;2.30;;;;;;;;;;6239649;22;20016;-86
2023/03/22 08:18:54;;;;;;;6.97;2.30;;;;;;;;;;6267204;22;20075;-86
2023/03/22 08:21:20;;;;;;;9.82;2.45;;;;;;;;;;6267867;22;20039;-85
2023/03/22 08:23:47;;;;;;;9.85;2.40;;;;;;;;;;6266070;22;20048;-86
2023/03/22 08:26:15;;;;;;;16.30;3.03;;;;;;;;;;6267929;22;20155;-86
2023/03/22 08:28:41;;;;;;;10.25;2.60;;;;;;;;;;6268385;22;20027;-86
2023/03/22 08:31:15;;;;;;;10.35;2.30;;;;;;;;;;6267516;22;20056;-86
2023/03/22 08:33:42;;;;;;;9.73;3.10;;;;;;;;;;6266651;22;20030;-86
2023/03/22 08:36:10;;;;;;;9.88;2.75;;;;;;;;;;6266664;22;20073;-86
2023/03/22 08:38:37;;;;;;;9.82;2.35;;;;;;;;;;6268946;22;20709;-86
2023/03/22 08:41:03;;;;;;;9.52;2.50;;;;;;;;;;6266957;22;20059;-87
2023/03/22 08:43:30;;;;;;;11.35;2.45;;;;;;;;;;6267934;22;20031;-86
2023/03/22 08:45:57;;;;;;;11.43;2.63;;;;;;;;;;6266386;22;20110;-87
2023/03/22 08:48:23;;;;;;;12.52;2.55;;;;;;;;;;6240807;22;20035;-86
2023/03/22 08:50:50;;;;;;;10.35;2.50;;;;;;;;;;6241830;22;20024;-85
2023/03/22 08:53:16;;;;;;;9.75;3.65;;;;;;;;;;6241698;22;20469;-86
2023/03/22 08:55:43;;;;;;;13.13;2.60;;;;;;;;;;6242195;22;20024;-86
2023/03/22 08:58:11;;;;;;;9.55;2.65;;;;;;;;;;6240926;22;20056;-86
2023/03/22 09:00:38;;;;;;;8.55;2.50;;;;;;;;;;6267110;22;20034;-86
2023/03/22 09:03:15;;;;;;;9.50;2.35;;;;;;;;;;6268341;22;20362;-86
2023/03/22 09:05:41;;;;;;;12.02;2.67;;;;;;;;;;6240400;22;20082;-87
2023/03/22 09:08:08;;;;;;;5.78;1.90;;;;;;;;;;6269287;22;20124;-86
2023/03/22 09:10:46;;;;;;;11.35;2.55;;;;;;;;;;6268610;22;20079;-85
2023/03/22 09:13:15;;;;;;;13.60;2.70;;;;;;;;;;6269551;22;20164;-87
2023/03/22 09:15:42;;;;;;;8.88;2.30;;;;;;;;;;6239535;22;20082;-87
2023/03/22 09:18:10;;;;;;;8.55;2.42;;;;;;;;;;6267986;22;21281;-86
2023/03/22 09:20:36;;;;;;;9.93;2.65;;;;;;;;;;6242011;22;20091;-86
2023/03/22 09:23:04;;;;;;;10.18;2.10;;;;;;;;;;6267416;22;20026;-86
2023/03/22 09:25:31;;;;;;;10.48;2.45;;;;;;;;;;6271209;22;20046;-86
2023/03/22 09:27:57;;;;;;;10.30;2.20;;;;;;;;;;6266694;22;20066;-85
2023/03/22 09:30:24;;;;;;;13.60;2.60;;;;;;;;;;6267916;22;20032;-86
2023/03/22 09:32:50;;;;;;;9.73;2.35;;;;;;;;;;6266134;22;20036;-86
2023/03/22 09:35:16;;;;;;;6.93;2.08;;;;;;;;;;6265526;22;20130;-86
2023/03/22 09:37:44;;;;;;;10.18;2.35;;;;;;;;;;6269340;22;20020;-85
2023/03/22 09:40:11;;;;;;;10.07;2.17;;;;;;;;;;6267960;22;20028;-86
2023/03/22 09:42:42;;;;;;;9.02;2.33;;;;;;;;;;6268015;22;20918;-86
2023/03/22 09:45:11;;;;;;;;;;;;;;;;;;6269633;22;20541;-86
2023/03/22 09:47:40;;;;;;;7.10;2.35;;;;;;;;;;6268106;22;45439;-86
2023/03/22 09:50:12;;;;;;;9.27;2.35;;;;;;;;;;6269296;22;20012;-86
2023/03/22 09:52:39;;;;;;;11.45;2.30;;;;;;;;;;6269515;22;20020;-86
2023/03/22 09:55:12;;;;;;;10.60;3.42;;;;;;;;;;6266992;22;20817;-86
2023/03/22 09:57:39;;;;;;;7.93;2.05;;;;;;;;;;6270031;22;20024;-86
2023/03/22 10:00:11;;;;;;;8.07;2.40;;;;;;;;;;6269609;22;20116;-86
2023/03/22 10:02:56;;;;;;;19.38;2.83;;;;;;;;;;6267722;22;20453;-86
2023/03/22 10:05:23;;;;;;;12.63;3.03;;;;;;;;;;6269632;22;20043;-86
2023/03/22 10:07:49;;;;;;;10.20;3.15;;;;;;;;;;6271794;22;20060;-85
2023/03/22 10:10:18;;;;;;;8.45;2.30;;;;;;;;;;6268311;22;20834;-86
2023/03/22 10:12:51;;;;;;;9.18;2.50;;;;;;;;;;6267046;22;20143;-87
2023/03/22 10:15:20;;;;;;;10.30;2.17;;;;;;;;;;6270053;22;20016;-86
2023/03/22 10:17:50;;;;;;;12.30;3.03;;;;;;;;;;6279401;22;20068;-86
2023/03/22 10:20:20;;;;;;;11.17;2.43;;;;;;;;;;6273530;22;20023;-86
2023/03/22 10:22:47;;;;;;;9.27;2.47;;;;;;;;;;6272408;22;20024;-86
2023/03/22 10:25:17;;;;;;;8.65;2.20;;;;;;;;;;6273314;22;20020;-85
2023/03/22 10:27:47;;;;;;;11.40;2.50;;;;;;;;;;6273974;22;20083;-85
2023/03/22 10:30:21;;;;;;;10.48;2.65;;;;;;;;;;6273048;22;20079;-86
2023/03/22 10:32:54;;;;;;;12.40;2.58;;;;;;;;;;6270746;22;20028;-85
2023/03/22 10:35:23;;;;;;;9.52;2.85;;;;;;;;;;6269732;22;20012;-86
2023/03/22 10:37:50;;;;;;;7.22;2.35;;;;;;;;;;6271079;22;20020;-86
2023/03/22 10:40:23;;;;;;;12.05;2.83;;;;;;;;;;6268104;22;20464;-86
2023/03/22 10:43:02;;;;;;;7.88;2.20;;;;;;;;;;6265594;22;20549;-87
2023/03/22 10:45:30;;;;;;;9.52;2.83;;;;;;;;;;6239513;22;20028;-87
2023/03/22 10:48:06;;;;;;;11.02;2.30;;;;;;;;;;6265886;22;20175;-87
2023/03/22 10:50:38;;;;;;;12.63;2.35;;;;;;;;;;6267312;22;20054;-86
2023/03/22 10:53:05;;;;;;;10.77;2.60;;;;;;;;;;6267055;22;20032;-87
2023/03/22 10:55:37;;;;;;;11.85;2.33;;;;;;;;;;6268271;22;20055;-87
2023/03/22 10:58:17;;;;;;;13.45;2.25;;;;;;;;;;6267387;22;20493;-86
2023/03/22 11:00:48;;;;;;;14.27;3.17;;;;;;;;;;6266157;22;20028;-86
2023/03/22 11:03:33;;;;;;;8.57;2.13;;;;;;;;;;6266927;22;20054;-86
2023/03/22 11:06:03;;;;;;;11.98;2.65;;;;;;;;;;6266842;22;20551;-86
2023/03/22 11:08:38;;;;;;;9.48;2.33;;;;;;;;;;6267279;22;20107;-86
2023/03/22 11:11:06;;;;;;;8.75;2.60;;;;;;;;;;6240013;22;20054;-86
2023/03/22 11:13:34;;;;;;;6.70;2.03;;;;;;;;;;6240710;22;20024;-87
2023/03/22 11:16:01;;;;;;;9.68;2.58;;;;;;;;;;6267949;22;20028;-86
2023/03/22 11:18:29;;;;;;;6.40;2.25;;;;;;;;;;6266837;22;20024;-86
2023/03/22 11:20:57;;;;;;;6.05;2.00;;;;;;;;;;6239229;22;20055;-87
2023/03/22 11:23:24;;;;;;;7.72;2.65;;;;;;;;;;6238964;22;20138;-87
2023/03/22 11:25:54;;;;;;;6.95;2.25;;;;;;;;;;6266572;22;20024;-87
2023/03/22 11:28:40;;;;;;;9.65;2.50;;;;;;;;;;6268292;22;20062;-86
2023/03/22 11:31:12;;;;;;;7.18;2.88;;;;;;;;;;6266602;22;20024;-86
2023/03/22 11:33:44;;;;;;;8.23;2.67;;;;;;;;;;6267033;22;20544;-87
2023/03/22 11:36:15;;;;;;;6.80;2.13;;;;;;;;;;6267748;22;20028;-86
2023/03/22 11:38:44;;;;;;;10.85;2.30;;;;;;;;;;6267969;22;20099;-84
2023/03/22 11:41:16;;;;;;;8.20;2.38;;;;;;;;;;6241029;22;20032;-87
2023/03/22 11:43:47;;;;;;;11.57;2.40;;;;;;;;;;6267707;22;20425;-87
2023/03/22 11:46:15;;;;;;;9.27;2.20;;;;;;;;;;6268641;22;20020;-89
2023/03/22 11:48:44;;;;;;;8.55;2.70;;;;;;;;;;6237535;22;20474;-88
2023/03/22 11:51:24;;;;;;;6.80;2.50;;;;;;;;;;6264007;22;20471;-88
2023/03/22 11:53:54;;;;;;;8.85;2.63;;;;;;;;;;6234899;22;20021;-88
2023/03/22 11:56:24;;;;;;;7.15;2.50;;;;;;;;;;6235191;22;20446;-88
2023/03/22 11:59:02;;;;;;;8.27;2.58;;;;;;;;;;6266358;22;20027;-88
2023/03/22 12:01:41;;;;;;;9.25;2.83;;;;;;;;;;6264756;22;20024;-87
2023/03/22 12:04:10;;;;;;;7.47;2.22;;;;;;;;;;6236070;22;20039;-88
2023/03/22 12:06:38;;;;;;;10.43;2.53;;;;;;;;;;6263562;22;20035;-87
2023/03/22 12:09:07;;;;;;;12.07;2.53;;;;;;;;;;6262914;22;20028;-88
2023/03/22 12:11:43;;;;;;;7.95;2.30;;;;;;;;;;6264572;22;20039;-89
2023/03/22 12:14:24;;;;;;;6.78;2.33;;;;;;;;;;6261556;22;20024;-88
2023/03/22 12:17:00;;;;;;;6.60;2.20;;;;;;;;;;6237869;22;20556;-89
2023/03/22 12:19:35;;;;;;;9.43;2.33;;;;;;;;;;6261611;22;20496;-88
2023/03/22 12:22:07;;;;;;;13.25;2.80;;;;;;;;;;6262816;22;20036;-88
2023/03/22 12:24:34;;;;;;;9.20;2.67;;;;;;;;;;6264215;22;20031;-88
2023/03/22 12:27:11;;;;;;;6.15;2.35;;;;;;;;;;6249303;22;20491;-89
2023/03/22 12:29:41;;;;;;;11.25;2.92;;;;;;;;;;6263720;22;20039;-89
2023/03/22 12:32:10;;;;;;;11.45;2.55;;;;;;;;;;6263863;22;20138;-88
2023/03/22 12:34:39;;;;;;;6.40;2.30;;;;;;;;;;6265188;22;20024;-90
2023/03/22 12:37:07;;;;;;;12.50;3.00;;;;;;;;;;6264968;22;20034;-87
2023/03/22 12:39:39;;;;;;;5.07;2.30;;;;;;;;;;6264710;22;20466;-88
2023/03/22 12:42:11;;;;;;;5.82;2.20;;;;;;;;;;6262285;22;20469;-89
2023/03/22 12:44:40;;;;;;;9.52;2.67;;;;;;;;;;6264807;22;20098;-88
2023/03/22 12:47:26;;;;;;;9.27;2.63;;;;;;;;;;6263733;22;20071;-87
2023/03/22 12:49:52;;;;;;;7.13;2.13;;;;;;;;;;6263290;22;20936;-88
2023/03/22 12:52:37;;;;;;;10.30;2.65;;;;;;;;;;6263536;22;20029;-88
2023/03/22 12:55:17;;;;;;;6.45;2.25;;;;;;;;;;6266080;22;20102;-88
2023/03/22 12:57:50;;;;;;;6.30;2.40;;;;;;;;;;6264534;22;20060;-88
2023/03/22 13:00:17;;;;;;;6.57;1.95;;;;;;;;;;6263215;22;20028;-89
2023/03/22 13:02:49;;;;;;;7.93;2.28;;;;;;;;;;6264356;22;20116;-88
2023/03/22 13:05:16;;;;;;;9.07;2.42;;;;;;;;;;6265135;22;20032;-89
2023/03/22 13:07:45;;;;;;;6.32;2.38;;;;;;;;;;6264801;22;20147;-88
2023/03/22 13:10:35;;;;;;;7.15;1.75;;;;;;;;;;6264442;22;20441;-89
2023/03/22 13:13:32;;;;;;;6.15;2.17;;;;;;;;;;6261855;22;20024;-88
2023/03/22 13:16:13;;;;;;;5.40;1.90;;;;;;;;;;6264440;22;20432;-88
2023/03/22 13:18:44;;;;;;;9.43;2.33;;;;;;;;;;6264142;22;20102;-89
2023/03/22 13:21:10;;;;;;;7.18;2.22;;;;;;;;;;6264783;22;20026;-89
2023/03/22 13:23:51;;;;;;;6.82;2.05;;;;;;;;;;6263986;22;20032;-88
2023/03/22 13:26:18;;;;;;;7.60;2.17;;;;;;;;;;6263928;22;20103;-88
2023/03/22 13:28:58;;;;;;;5.05;2.15;;;;;;;;;;6237890;22;20107;-89
2023/03/22 13:31:32;;;;;;;8.55;2.47;;;;;;;;;;6237958;22;20111;-89
2023/03/22 13:34:00;;;;;;;7.43;2.47;;;;;;;;;;6236555;22;20972;-89
2023/03/22 13:36:28;;;;;;;5.82;2.45;;;;;;;;;;6234581;22;20024;-88
2023/03/22 13:38:56;;;;;;;7.03;2.63;;;;;;;;;;6237125;22;20547;-88
2023/03/22 13:41:26;;;;;;;9.98;2.65;;;;;;;;;;6264346;22;20587;-88
2023/03/22 13:43:55;;;;;;;7.00;2.63;;;;;;;;;;6236060;22;20464;-88
2023/03/22 13:46:21;;;;;;;7.78;2.50;;;;;;;;;;6264572;22;20036;-89
2023/03/22 13:48:54;;;;;;;10.35;2.70;;;;;;;;;;6260467;22;20028;-87
2023/03/22 13:51:20;;;;;;;7.43;2.50;;;;;;;;;;6265283;22;20539;-87
2023/03/22 13:54:05;;;;;;;6.75;2.85;;;;;;;;;;6264988;22;20035;-88
2023/03/22 13:56:40;;;;;;;7.03;3.05;;;;;;;;;;6264529;22;20020;-88
2023/03/22 13:59:10;;;;;;;10.00;3.97;;;;;;;;;;6264017;22;20028;-88
2023/03/22 14:01:46;;;;;;;9.55;3.55;;;;;;;;;;6236499;22;20024;-87
2023/03/22 14:04:15;;;;;;;10.85;3.65;;;;;;;;;;6263137;22;20819;-89
2023/03/22 14:06:53;;;;;;;9.68;4.13;;;;;;;;;;6264195;22;20047;-89
2023/03/22 14:09:42;;;;;;;7.60;3.83;;;;;;;;;;6264171;22;20073;-89
2023/03/22 14:12:11;;;;;;;10.45;4.55;;;;;;;;;;6265053;22;20030;-88
2023/03/22 14:14:43;;;;;;;8.10;4.22;;;;;;;;;;6263711;22;20043;-89
2023/03/22 14:17:15;;;;;;;10.48;4.40;;;;;;;;;;6263806;22;20028;-89
2023/03/22 14:19:42;;;;;;;12.32;4.55;;;;;;;;;;6238706;22;20059;-88
2023/03/22 14:22:26;;;;;;;10.55;5.05;;;;;;;;;;6265257;22;20059;-89
2023/03/22 14:24:52;;;;;;;8.73;4.20;;;;;;;;;;6264872;22;20004;-89
2023/03/22 14:27:17;;;;;;;10.00;4.47;;;;;;;;;;6265391;22;20012;-88
2023/03/22 14:29:44;;;;;;;10.57;4.53;;;;;;;;;;6238632;22;20078;-89
2023/03/22 14:32:29;;;;;;;10.55;5.35;;;;;;;;;;6266030;22;20361;-88
2023/03/22 14:35:05;;;;;;;7.30;4.18;;;;;;;;;;6235345;22;20016;-89
2023/03/22 14:37:31;;;;;;;10.50;4.78;;;;;;;;;;6237076;22;20020;-90
2023/03/22 14:39:58;;;;;;;10.75;4.65;;;;;;;;;;6263236;22;20004;-89
2023/03/22 14:42:28;;;;;;;11.95;4.95;;;;;;;;;;6264389;22;20032;-88
2023/03/22 14:44:58;;;;;;;10.40;4.80;;;;;;;;;;6236147;22;20090;-89
2023/03/22 14:47:32;;;;;;;9.27;4.20;;;;;;;;;;6233908;22;20008;-88
2023/03/22 14:49:59;;;;;;;10.15;3.78;;;;;;;;;;6212253;22;20024;-89